Terminal Aerodrome Forecast
Issued by NWS

Home | Current Version | Previous Version | Text Only | Print | Product List | Glossary On
Versions: 1 2 3 4 5 6 7 8 9 10 11 12 13 14 15 16 17 18 19 20 21 22 23 24
000
FTPA31 PHFO 201122
TAFHTO
TAF
PHTO 201122Z 2012/2112 02010KT P6SM VCSH FEW025 BKN040
     FM202100 02012G20KT P6SM VCSH SCT025 BKN045
     FM210400 33010KT P6SM VCSH SCT025 BKN040=

USA.gov is the U.S. government's official web portal to all federal, state and local government web resources and services.